createdAt,value
2023-04-01T00:01:21.333Z,17.98
2023-04-01T00:03:49.284Z,16.15
2023-04-01T00:06:17.922Z,16.35
2023-04-01T00:08:45.765Z,16.70
2023-04-01T00:11:12.947Z,17.00
2023-04-01T00:16:17.728Z,18.23
2023-04-01T00:18:50.961Z,17.88
2023-04-01T00:21:18.728Z,17.60
2023-04-01T00:23:45.571Z,18.27
2023-04-01T00:28:41.170Z,15.40
2023-04-01T00:31:09.466Z,15.60
2023-04-01T00:33:36.732Z,15.60
2023-04-01T00:36:14.268Z,16.90
2023-04-01T00:38:42.678Z,16.00
2023-04-01T00:41:15.194Z,15.30
2023-04-01T00:43:43.696Z,16.50
2023-04-01T00:46:10.699Z,18.38
2023-04-01T00:48:40.891Z,17.17
2023-04-01T00:51:13.854Z,17.75
2023-04-01T00:53:46.185Z,15.90
2023-04-01T00:56:23.572Z,15.18
2023-04-01T00:58:55.672Z,15.77
2023-04-01T01:01:25.294Z,17.13
2023-04-01T01:03:52.304Z,15.52
2023-04-01T01:09:10.303Z,15.30
2023-04-01T01:11:52.762Z,14.60
2023-04-01T01:14:34.552Z,15.07
2023-04-01T01:17:37.836Z,17.70
2023-04-01T01:20:23.026Z,17.38
2023-04-01T01:23:11.819Z,18.08
2023-04-01T01:26:04.963Z,20.55
2023-04-01T01:28:31.708Z,20.58
2023-04-01T01:31:01.779Z,22.48
2023-04-01T01:33:48.566Z,21.98
2023-04-01T01:36:19.931Z,20.25
2023-04-01T01:38:48.981Z,20.65
2023-04-01T01:41:19.068Z,22.40
2023-04-01T01:43:49.882Z,19.73
2023-04-01T01:46:20.776Z,21.17
2023-04-01T01:48:49.422Z,20.52
2023-04-01T01:51:16.549Z,21.33
2023-04-01T01:53:43.344Z,19.77
2023-04-01T01:58:52.559Z,19.27
2023-04-01T02:01:24.853Z,18.75
2023-04-01T02:03:52.968Z,17.95
2023-04-01T02:06:24.268Z,17.70
2023-04-01T02:08:58.603Z,16.23
2023-04-01T02:11:38.117Z,16.45
2023-04-01T02:16:53.673Z,18.13
2023-04-01T02:19:23.710Z,17.67
2023-04-01T02:21:58.612Z,16.60
2023-04-01T02:24:28.338Z,17.08
2023-04-01T02:26:55.256Z,17.85
2023-04-01T02:29:24.366Z,17.20
2023-04-01T02:31:51.652Z,19.27
2023-04-01T02:34:19.210Z,19.25
2023-04-01T02:36:46.087Z,19.20
2023-04-01T02:41:42.581Z,16.00
2023-04-01T02:44:10.349Z,15.75
2023-04-01T02:46:37.474Z,15.18
2023-04-01T02:49:05.024Z,15.98
2023-04-01T02:51:33.010Z,14.38
2023-04-01T02:54:00.169Z,14.77
2023-04-01T02:56:27.121Z,15.30
2023-04-01T02:58:54.895Z,15.23
2023-04-01T03:01:22.443Z,16.15
2023-04-01T03:03:49.244Z,16.70
2023-04-01T03:06:17.070Z,17.65
2023-04-01T03:08:44.719Z,14.95
2023-04-01T03:11:12.287Z,14.85
2023-04-01T03:13:39.367Z,12.95
2023-04-01T03:18:33.534Z,12.70
2023-04-01T03:21:17.867Z,13.60
2023-04-01T03:23:45.182Z,13.65
2023-04-01T03:26:12.459Z,12.60
2023-04-01T03:28:39.252Z,11.85
2023-04-01T03:31:06.492Z,13.18
2023-04-01T03:33:33.921Z,12.55
2023-04-01T03:36:00.912Z,11.70
2023-04-01T03:38:27.797Z,13.27
2023-04-01T03:43:23.338Z,15.35
2023-04-01T03:45:51.940Z,14.15
2023-04-01T03:48:19.335Z,16.02
2023-04-01T03:50:47.990Z,15.55
2023-04-01T03:53:14.842Z,16.35
2023-04-01T03:55:41.664Z,17.10
2023-04-01T03:58:08.968Z,17.35
2023-04-01T04:00:35.936Z,17.40
2023-04-01T04:05:29.587Z,16.70
2023-04-01T04:07:56.595Z,17.55
2023-04-01T04:12:51.364Z,16.45
2023-04-01T04:15:18.575Z,17.67
2023-04-01T04:17:46.984Z,19.25
2023-04-01T04:20:14.009Z,18.73
2023-04-01T04:22:40.849Z,17.80
2023-04-01T04:25:08.368Z,18.48
2023-04-01T04:27:36.162Z,18.88
2023-04-01T04:30:03.439Z,19.08
2023-04-01T04:32:31.259Z,20.08
2023-04-01T04:34:58.449Z,18.48
2023-04-01T04:37:26.807Z,19.15
2023-04-01T04:39:53.596Z,17.88
2023-04-01T04:42:20.486Z,19.48
2023-04-01T04:47:14.013Z,16.27
2023-04-01T04:49:41.112Z,16.45
2023-04-01T04:54:34.665Z,15.23
2023-04-01T04:57:01.411Z,15.73
2023-04-01T04:59:28.210Z,15.35
2023-04-01T05:01:55.128Z,15.43
2023-04-01T05:06:48.574Z,14.75
2023-04-01T05:09:16.187Z,14.25
2023-04-01T05:11:42.983Z,14.43
2023-04-01T05:14:18.385Z,14.55
2023-04-01T05:16:45.280Z,15.18
2023-04-01T05:21:38.891Z,14.15
2023-04-01T05:26:34.923Z,13.73
2023-04-01T05:29:01.671Z,11.68
2023-04-01T05:31:28.427Z,12.85
2023-04-01T05:33:55.729Z,11.80
2023-04-01T05:36:22.792Z,12.32
2023-04-01T05:38:49.894Z,13.07
2023-04-01T05:41:16.899Z,12.80
2023-04-01T05:46:10.584Z,13.82
2023-04-01T05:51:04.890Z,13.73
2023-04-01T05:53:31.903Z,15.02
2023-04-01T05:56:02.469Z,15.55
2023-04-01T05:58:29.276Z,16.00
2023-04-01T06:01:10.117Z,14.90
2023-04-01T06:03:40.931Z,15.98
2023-04-01T06:06:16.642Z,15.23
2023-04-01T06:08:44.238Z,17.27
2023-04-01T06:11:24.855Z,17.10
2023-04-01T06:14:06.511Z,17.58
2023-04-01T06:16:42.364Z,18.33
2023-04-01T06:19:31.569Z,16.58
2023-04-01T06:22:11.760Z,17.55
2023-04-01T06:24:57.762Z,17.58
2023-04-01T06:27:47.854Z,20.70
2023-04-01T06:30:32.620Z,18.10
2023-04-01T06:33:19.048Z,19.15
2023-04-01T06:36:03.487Z,18.67
2023-04-01T06:38:58.941Z,20.13
2023-04-01T06:42:03.071Z,18.67
2023-04-01T06:44:40.795Z,19.83
2023-04-01T06:47:37.205Z,22.08
2023-04-01T06:50:21.526Z,20.35
2023-04-01T06:53:16.224Z,27.25
2023-04-01T06:55:50.923Z,26.70
2023-04-01T06:58:24.173Z,29.92
2023-04-01T07:03:39.498Z,29.10
2023-04-01T07:06:09.998Z,30.05
2023-04-01T07:08:41.425Z,31.30
2023-04-01T07:11:12.403Z,28.30
2023-04-01T07:13:56.283Z,28.00
2023-04-01T07:16:31.285Z,27.80
2023-04-01T07:19:15.952Z,27.92
2023-04-01T07:21:48.082Z,27.88
2023-04-01T07:24:40.386Z,28.88
2023-04-01T07:27:15.706Z,29.23
2023-04-01T07:29:42.773Z,29.40
2023-04-01T07:32:41.905Z,28.23
2023-04-01T07:35:27.039Z,28.83
2023-04-01T07:38:14.310Z,27.05
2023-04-01T07:40:43.901Z,25.20
2023-04-01T07:43:40.791Z,25.75
2023-04-01T07:46:13.637Z,24.55
2023-04-01T07:48:57.064Z,25.30
2023-04-01T07:52:00.798Z,24.15
2023-04-01T07:54:42.547Z,24.40
2023-04-01T07:57:47.440Z,23.42
2023-04-01T08:03:08.899Z,22.75
2023-04-01T08:06:11.164Z,21.30
2023-04-01T08:08:44.799Z,20.60
2023-04-01T08:11:29.372Z,21.55
2023-04-01T08:14:04.901Z,21.58
2023-04-01T08:17:01.651Z,20.73
2023-04-01T08:19:53.660Z,20.73
2023-04-01T08:22:31.858Z,21.15
2023-04-01T08:25:03.578Z,22.23
2023-04-01T08:27:38.102Z,21.08
2023-04-01T08:30:30.314Z,21.33
2023-04-01T08:33:09.311Z,20.25
2023-04-01T08:35:47.394Z,21.00
2023-04-01T08:38:34.831Z,20.40
2023-04-01T08:41:21.248Z,19.65
2023-04-01T08:44:18.171Z,20.38
2023-04-01T08:46:47.934Z,21.83
2023-04-01T08:49:36.239Z,19.83
2023-04-01T08:52:22.577Z,19.67
2023-04-01T08:54:58.506Z,18.45
2023-04-01T08:57:50.511Z,19.52
2023-04-01T09:00:43.079Z,18.13
2023-04-01T09:03:23.673Z,17.42
2023-04-01T09:06:41.015Z,18.48
2023-04-01T09:09:10.901Z,16.83
2023-04-01T09:12:11.323Z,16.13
2023-04-01T09:14:58.858Z,17.30
2023-04-01T09:17:37.906Z,18.27
2023-04-01T09:20:29.241Z,17.10
2023-04-01T09:23:17.645Z,18.75
2023-04-01T09:26:10.460Z,20.13
2023-04-01T09:29:11.207Z,18.55
2023-04-01T09:31:40.690Z,19.33
2023-04-01T09:34:44.130Z,17.80
2023-04-01T09:37:27.908Z,18.23
2023-04-01T09:40:03.190Z,18.85
2023-04-01T09:42:55.517Z,19.98
2023-04-01T09:45:36.645Z,17.15
2023-04-01T09:48:12.253Z,21.67
2023-04-01T09:51:07.501Z,18.88
2023-04-01T09:53:43.498Z,19.38
2023-04-01T09:56:16.087Z,18.80
2023-04-01T09:59:16.962Z,18.42
2023-04-01T10:02:32.340Z,19.55
2023-04-01T10:05:02.110Z,18.38
2023-04-01T10:07:53.729Z,17.73
2023-04-01T10:10:42.202Z,16.70
2023-04-01T10:13:30.198Z,15.57
2023-04-01T10:16:18.419Z,14.73
2023-04-01T10:19:29.788Z,14.88
2023-04-01T10:22:07.927Z,13.95
2023-04-01T10:24:53.129Z,14.10
2023-04-01T10:27:47.543Z,12.70
2023-04-01T10:30:51.472Z,11.38
2023-04-01T10:33:45.828Z,10.43
2023-04-01T10:36:31.235Z,8.77
2023-04-01T10:39:04.213Z,6.75
2023-04-01T10:44:18.623Z,2.45
2023-04-01T10:47:10.554Z,2.10
2023-04-01T10:52:12.818Z,2.58
2023-04-01T10:54:49.562Z,3.88
2023-04-01T10:57:54.109Z,3.95
2023-04-01T11:00:54.097Z,4.10
2023-04-01T11:03:21.331Z,3.92
2023-04-01T11:06:11.985Z,4.45
2023-04-01T11:08:58.848Z,5.22
2023-04-01T11:11:49.978Z,4.85
2023-04-01T11:14:31.777Z,4.75
2023-04-01T11:17:23.512Z,4.47
2023-04-01T11:19:53.141Z,4.30
2023-04-01T11:22:41.629Z,4.60
2023-04-01T11:25:45.245Z,4.15
2023-04-01T11:28:36.229Z,4.90
2023-04-01T11:31:12.131Z,5.32
2023-04-01T11:33:49.093Z,4.38
2023-04-01T11:36:33.635Z,3.20
2023-04-01T11:39:14.786Z,2.80
2023-04-01T11:42:08.838Z,2.38
2023-04-01T11:44:44.287Z,2.50
2023-04-01T11:47:20.049Z,2.25
2023-04-01T11:50:11.605Z,1.50
2023-04-01T11:53:07.892Z,1.92
2023-04-01T11:56:04.010Z,1.80
2023-04-01T11:59:07.589Z,1.83
2023-04-01T12:01:55.527Z,2.22
2023-04-01T12:04:40.379Z,2.30
2023-04-01T12:07:12.876Z,1.95
2023-04-01T12:09:45.365Z,2.10
2023-04-01T12:12:32.910Z,3.05
2023-04-01T12:15:35.709Z,3.05
2023-04-01T12:18:29.796Z,2.83
2023-04-01T12:21:39.162Z,2.67
2023-04-01T12:24:27.649Z,3.22
2023-04-01T12:27:14.124Z,3.15
2023-04-01T12:30:15.332Z,3.22
2023-04-01T12:32:58.155Z,3.20
2023-04-01T12:35:33.583Z,3.63
2023-04-01T12:38:17.404Z,2.80
2023-04-01T12:41:03.030Z,2.13
2023-04-01T12:43:29.740Z,2.35
2023-04-01T12:46:13.978Z,2.50
2023-04-01T12:49:24.003Z,2.17
2023-04-01T12:52:16.613Z,2.63
2023-04-01T12:55:27.284Z,2.80
2023-04-01T12:58:30.917Z,2.50
2023-04-01T13:01:26.291Z,2.53
2023-04-01T13:04:35.410Z,3.10
2023-04-01T13:07:31.303Z,2.72
2023-04-01T13:10:04.280Z,2.90
2023-04-01T13:12:58.135Z,2.53
2023-04-01T13:15:45.378Z,3.15
2023-04-01T13:18:48.650Z,3.15
2023-04-01T13:21:27.371Z,3.10
2023-04-01T13:24:03.992Z,3.22
2023-04-01T13:26:42.878Z,3.17
2023-04-01T13:29:19.109Z,3.10
2023-04-01T13:31:48.895Z,3.13
2023-04-01T13:34:39.898Z,2.72
2023-04-01T13:37:36.202Z,3.20
2023-04-01T13:40:29.481Z,3.40
2023-04-01T13:43:12.960Z,2.95
2023-04-01T13:45:39.708Z,3.58
2023-04-01T13:48:14.654Z,3.30
2023-04-01T13:51:00.423Z,2.67
2023-04-01T13:56:37.991Z,2.90
2023-04-01T13:59:33.474Z,2.90
2023-04-01T14:02:18.934Z,3.20
2023-04-01T14:07:39.944Z,3.08
2023-04-01T14:10:21.689Z,3.00
2023-04-01T14:12:58.534Z,3.03
2023-04-01T14:15:49.440Z,2.70
2023-04-01T14:18:38.062Z,3.03
2023-04-01T14:21:42.649Z,3.20
2023-04-01T14:24:29.736Z,2.85
2023-04-01T14:27:05.206Z,2.40
2023-04-01T14:29:53.360Z,2.53
2023-04-01T14:32:34.357Z,2.72
2023-04-01T14:35:15.889Z,2.67
2023-04-01T14:37:58.803Z,2.85
2023-04-01T14:40:35.483Z,2.70
2023-04-01T14:43:02.213Z,2.78
2023-04-01T14:45:46.433Z,2.60
2023-04-01T14:48:38.414Z,2.60
2023-04-01T14:51:33.267Z,2.75
2023-04-01T14:54:12.350Z,2.85
2023-04-01T14:59:22.747Z,2.85
2023-04-01T15:02:19.345Z,2.90
2023-04-01T15:04:59.819Z,2.78
2023-04-01T15:07:44.537Z,3.10
2023-04-01T15:10:35.402Z,2.80
2023-04-01T15:13:17.298Z,2.80
2023-04-01T15:16:02.264Z,3.00
2023-04-01T15:19:06.269Z,2.80
2023-04-01T15:21:57.104Z,3.30
2023-04-01T15:24:48.994Z,3.10
2023-04-01T15:27:57.192Z,3.28
2023-04-01T15:30:33.720Z,2.80
2023-04-01T15:33:31.201Z,2.00
2023-04-01T15:36:03.793Z,1.70
2023-04-01T15:38:48.127Z,2.10
2023-04-01T15:41:28.730Z,1.65
2023-04-01T15:43:55.539Z,1.38
2023-04-01T15:46:45.756Z,1.20
2023-04-01T15:49:35.158Z,1.55
2023-04-01T15:52:25.461Z,1.20
2023-04-01T15:55:07.822Z,1.20
2023-04-01T15:58:06.772Z,1.23
2023-04-01T16:01:11.574Z,1.65
2023-04-01T16:04:16.243Z,1.30
2023-04-01T16:06:52.942Z,1.30
2023-04-01T16:09:56.745Z,1.20
2023-04-01T16:12:59.033Z,0.90
2023-04-01T16:15:53.190Z,0.80
2023-04-01T16:18:35.113Z,1.05
2023-04-01T16:21:15.556Z,1.10
2023-04-01T16:23:51.511Z,0.90
2023-04-01T16:26:18.263Z,0.70
2023-04-01T16:28:58.190Z,0.70
2023-04-01T16:31:27.804Z,0.93
2023-04-01T16:34:26.418Z,0.77
2023-04-01T16:37:01.182Z,0.70
2023-04-01T16:39:53.697Z,0.70
2023-04-01T16:42:28.272Z,0.80
2023-04-01T16:45:09.039Z,0.77
2023-04-01T16:47:50.536Z,0.52
2023-04-01T16:50:40.345Z,0.68
2023-04-01T16:53:20.646Z,0.60
2023-04-01T16:56:13.863Z,1.10
2023-04-01T16:58:55.609Z,1.20
2023-04-01T17:01:28.387Z,1.20
2023-04-01T17:06:47.027Z,0.80
2023-04-01T17:09:24.521Z,1.50
2023-04-01T17:12:06.081Z,1.58
2023-04-01T17:14:55.554Z,1.13
2023-04-01T17:17:42.296Z,1.30
2023-04-01T17:20:17.309Z,1.38
2023-04-01T17:23:28.015Z,1.40
2023-04-01T17:25:54.804Z,1.50
2023-04-01T17:29:04.080Z,1.40
2023-04-01T17:31:33.671Z,1.40
2023-04-01T17:34:41.908Z,1.13
2023-04-01T17:37:30.969Z,1.30
2023-04-01T17:40:14.808Z,1.30
2023-04-01T17:43:05.501Z,1.40
2023-04-01T17:45:45.549Z,1.42
2023-04-01T17:48:35.780Z,1.27
2023-04-01T17:51:48.624Z,1.52
2023-04-01T17:54:27.189Z,2.80
2023-04-01T17:57:08.893Z,3.10
2023-04-01T17:59:48.956Z,2.80
2023-04-01T18:02:31.079Z,3.00
2023-04-01T18:05:19.204Z,3.25
2023-04-01T18:07:51.674Z,3.38
2023-04-01T18:10:33.760Z,3.70
2023-04-01T18:13:31.417Z,4.00
2023-04-01T18:16:22.795Z,3.10
2023-04-01T18:19:19.652Z,3.95
2023-04-01T18:21:57.578Z,4.00
2023-04-01T18:24:47.048Z,4.55
2023-04-01T18:27:25.589Z,3.92
2023-04-01T18:30:07.374Z,3.63
2023-04-01T18:32:45.999Z,3.60
2023-04-01T18:35:59.190Z,4.55
2023-04-01T18:38:31.707Z,4.40
2023-04-01T18:41:15.215Z,4.25
2023-04-01T18:44:08.538Z,4.47
2023-04-01T18:46:53.998Z,4.25
2023-04-01T18:49:30.948Z,4.13
2023-04-01T18:52:11.800Z,4.00
2023-04-01T18:55:08.698Z,5.18
2023-04-01T18:57:55.775Z,4.03
2023-04-01T19:00:25.414Z,4.13
2023-04-01T19:03:28.270Z,4.63
2023-04-01T19:06:00.190Z,4.63
2023-04-01T19:08:32.529Z,4.55
2023-04-01T19:11:03.637Z,4.40
2023-04-01T19:13:51.256Z,4.60
2023-04-01T19:16:18.082Z,4.47
2023-04-01T19:18:47.879Z,3.90
2023-04-01T19:21:22.489Z,4.40
2023-04-01T19:24:04.712Z,4.13
2023-04-01T19:26:38.323Z,4.13
2023-04-01T19:29:20.119Z,4.53
2023-04-01T19:32:06.588Z,3.90
2023-04-01T19:34:48.056Z,4.22
2023-04-01T19:37:30.398Z,3.88
2023-04-01T19:40:18.909Z,4.25
2023-04-01T19:43:14.560Z,4.00
2023-04-01T19:45:47.021Z,3.80
2023-04-01T19:48:44.603Z,3.28
2023-04-01T19:51:11.587Z,3.28
2023-04-01T19:54:03.993Z,3.50
2023-04-01T19:56:43.781Z,3.60
2023-04-01T19:59:42.623Z,3.38
2023-04-01T20:02:09.340Z,3.60
2023-04-01T20:04:39.880Z,3.10
2023-04-01T20:07:25.380Z,3.95
2023-04-01T20:12:26.081Z,3.70
2023-04-01T20:14:57.280Z,5.13
2023-04-01T20:17:38.220Z,3.83
2023-04-01T20:20:11.037Z,4.78
2023-04-01T20:22:46.711Z,5.53
2023-04-01T20:25:16.529Z,8.88
2023-04-01T20:27:52.981Z,6.45
2023-04-01T20:30:45.816Z,5.30
2023-04-01T20:33:37.128Z,3.72
2023-04-01T20:36:24.772Z,3.72
2023-04-01T20:39:16.373Z,8.30
2023-04-01T20:42:13.999Z,5.85
2023-04-01T20:44:46.230Z,5.40
2023-04-01T20:47:34.304Z,5.90
2023-04-01T20:50:19.849Z,5.90
2023-04-01T20:53:04.660Z,5.32
2023-04-01T20:56:11.678Z,6.15
2023-04-01T20:58:44.333Z,7.57
2023-04-01T21:01:11.167Z,8.48
2023-04-01T21:04:13.414Z,9.38
2023-04-01T21:06:54.849Z,11.27
2023-04-01T21:09:43.251Z,11.50
2023-04-01T21:12:28.444Z,12.32
2023-04-01T21:15:04.313Z,12.55
2023-04-01T21:17:31.516Z,12.95
2023-04-01T21:20:07.487Z,14.23
2023-04-01T21:22:57.507Z,14.63
2023-04-01T21:25:42.289Z,14.48
2023-04-01T21:28:45.989Z,15.02
2023-04-01T21:31:28.721Z,15.25
2023-04-01T21:34:26.568Z,14.82
2023-04-01T21:37:15.009Z,15.40
2023-04-01T21:40:05.585Z,15.18
2023-04-01T21:42:55.658Z,15.95
2023-04-01T21:45:45.164Z,16.10
2023-04-01T21:48:31.005Z,14.73
2023-04-01T21:51:39.316Z,15.45
2023-04-01T21:54:20.194Z,16.23
2023-04-01T21:57:24.621Z,16.65
2023-04-01T22:00:17.227Z,16.20
2023-04-01T22:03:27.209Z,14.80
2023-04-01T22:06:23.568Z,15.52
2023-04-01T22:09:13.704Z,16.23
2023-04-01T22:12:16.113Z,16.65
2023-04-01T22:15:03.907Z,15.63
2023-04-01T22:17:45.173Z,15.95
2023-04-01T22:20:20.519Z,16.90
2023-04-01T22:23:03.183Z,16.52
2023-04-01T22:25:43.492Z,17.08
2023-04-01T22:28:22.228Z,16.02
2023-04-01T22:30:53.302Z,16.95
2023-04-01T22:33:32.847Z,16.77
2023-04-01T22:36:08.483Z,17.33
2023-04-01T22:38:59.798Z,17.30
2023-04-01T22:41:55.585Z,17.23
2023-04-01T22:44:28.343Z,17.27
2023-04-01T22:47:21.353Z,16.38
2023-04-01T22:50:24.553Z,16.30
2023-04-01T22:53:06.810Z,15.38
2023-04-01T22:55:37.106Z,14.60
2023-04-01T22:58:13.401Z,14.70
2023-04-01T23:00:45.499Z,14.80
2023-04-01T23:03:32.471Z,13.73
2023-04-01T23:06:02.636Z,13.13
2023-04-01T23:08:47.837Z,12.43
2023-04-01T23:11:21.042Z,11.40
2023-04-01T23:14:05.039Z,10.85
2023-04-01T23:16:41.836Z,10.98
2023-04-01T23:19:29.691Z,10.85
2023-04-01T23:22:03.447Z,10.60
2023-04-01T23:25:00.484Z,10.65
2023-04-01T23:27:38.169Z,10.10
2023-04-01T23:30:05.620Z,11.25
2023-04-01T23:32:32.460Z,11.00
2023-04-01T23:35:01.209Z,10.70
2023-04-01T23:37:28.714Z,10.38
2023-04-01T23:39:58.261Z,10.85
2023-04-01T23:42:24.892Z,11.00
2023-04-01T23:47:24.842Z,10.20
2023-04-01T23:50:14.140Z,11.13
2023-04-01T23:52:44.659Z,10.27
2023-04-01T23:55:18.104Z,12.50
2023-04-01T23:58:01.297Z,14.18
